BEG weather

Belgrade Nikola Tesla Airport
Belgrade, Beograd (city), Serbia

Public forecast

Using degrees Celsius for public forecast. Weather courtesy of forecast.io.

Current aviation weather report (METAR) for Belgrade Nikola Tesla Airport

Retrieved 2019/10/19 05:30 UTC (9 minutes ago):

LYBE 190530Z 32002KT 3000 MIFG BR NSC 11/10 Q1018 BECMG 6000 NSW

Aviation forecast (TAF) for Belgrade Nikola Tesla Airport

Retrieved 2019-10-19 00:21 UTC (5 hours ago):

TAF LYBE 182300Z 1900/1924 20005KT 8000 NSC TX25/1913Z TN11/1904Z BECMG 1900/1902 4000 BR TEMPO 1903/1906 0800 FG BECMG 1906/1908 CAVOK